Аэропорт: Чебоксары. Чебоксары

ICAO: UWKS

METAR:
2021-04-21 20:30:00
UWKS 212030Z 17007MPS 9999 BKN009CB 03/02 Q1016 R24/290155 NOSIG RMK QFE748
METAR:
2021-04-21 16:55:00
TAF UWKS 211655Z 2118/2203 17008G14MPS 8000 -SHRASN OVC011CB TX04/2202Z TN02/2118Z